»·PEaware :: TPX673 KPSP-KLAS

TPX673 :: KPSP-KLAS

FLIGHT INFORMATION

Flight Status: Arrived
Operator: ATP Experience
More flights by this operator :: More flights under this callsign
Pilot: Dave P. (45)
Aircraft: BOEING 737-800
(B738)
More flights by this aircraft type
Origin: KPSP Palm Springs Intl
United States
Destination: KLAS McCarran Intl
United States
More flights between these airports :: More routes between these airports
Route: +CATH1 PSP V370 TNP KEPEC6
File this flight plan on PilotEdge
Remarks: PBN / A1B1C1D1S1S2 DOF / 180708 REG / N738PM OPR / TPX PER / D RMK / TCAS SIMBRIEF
Altitude:
(Current/Filed)
27,000ft
Speed:
(Current/Filed)
468kts
Departed: 07-Jul-18 05:48 PM
Arrived: 07-Jul-18 06:30 PM
Distance/Time
Traveled:
151nm/0:42
Distance/Time
To Go:
Arrived

Flight Plot

Page will automatically refresh every two minutes.

Flight plan parsing failed; only flown route is shown


Map Options




Map Legend


Flown Route
Filed Route
Departure Airport
Arrival Airport
Navaid (VOR, NDB)
Fix

Horizontal Profiles

Position Reports

Time Latitude Longitude Heading Altitude Ground
Speed
07-Jul-18 17:35 33.823122 -116.505784 285 485ft 0kts
07-Jul-18 17:36 33.823122 -116.505784 285 485ft 0kts
07-Jul-18 17:37 33.823122 -116.505784 285 485ft 0kts
07-Jul-18 17:38 33.823122 -116.505784 285 485ft 0kts
07-Jul-18 17:39 33.823122 -116.505784 285 485ft 0kts
07-Jul-18 17:40 33.823052 -116.505477 285 485ft 2kts
07-Jul-18 17:41 33.822970 -116.505125 285 485ft 0kts
07-Jul-18 17:42 33.822970 -116.505125 285 485ft 0kts
07-Jul-18 17:43 33.822937 -116.505256 225 485ft 3kts
07-Jul-18 17:44 33.822810 -116.504914 65 485ft 0kts
07-Jul-18 17:45 33.822163 -116.503043 144 485ft 17kts
07-Jul-18 17:46 33.818530 -116.499529 98 485ft 10kts
07-Jul-18 17:47 33.818526 -116.498916 89 485ft 5kts
07-Jul-18 17:48 33.819800 -116.498871 323 485ft 31kts
07-Jul-18 17:49 33.846260 -116.522308 323 1123ft 163kts
07-Jul-18 17:50 33.886393 -116.558551 321 2794ft 215kts
07-Jul-18 17:51 33.934608 -116.523122 94 4213ft 279kts
07-Jul-18 17:52 33.895965 -116.449365 140 6883ft 284kts
07-Jul-18 17:53 33.890411 -116.359730 61 9490ft 302kts
07-Jul-18 17:54 33.930228 -116.266697 66 11419ft 340kts
07-Jul-18 17:55 33.971059 -116.156180 66 13294ft 371kts
07-Jul-18 17:56 34.013809 -116.040345 66 15726ft 384kts
07-Jul-18 17:57 34.057576 -115.920436 66 18032ft 397kts
07-Jul-18 17:58 34.103395 -115.797032 61 20050ft 410kts
07-Jul-18 17:59 34.180676 -115.692690 43 21799ft 426kts
07-Jul-18 18:00 34.268750 -115.594038 44 23344ft 437kts
07-Jul-18 18:01 34.369934 -115.510049 23 24748ft 452kts
07-Jul-18 18:02 34.489599 -115.458045 20 26038ft 461kts
07-Jul-18 18:03 34.609828 -115.405947 21 26771ft 448kts
07-Jul-18 18:04 34.723908 -115.355967 21 24947ft 428kts
07-Jul-18 18:05 34.837849 -115.352329 345 23877ft 403kts
07-Jul-18 18:06 34.942416 -115.391860 343 21857ft 405kts
07-Jul-18 18:07 35.048704 -115.433224 342 20597ft 401kts
07-Jul-18 18:08 35.154123 -115.474344 342 19308ft 391kts
07-Jul-18 18:09 35.256554 -115.514396 342 18094ft 382kts
07-Jul-18 18:10 35.356975 -115.553832 342 16922ft 376kts
07-Jul-18 18:11 35.455742 -115.592633 342 15716ft 369kts
07-Jul-18 18:11 35.536544 -115.624573 342 14719ft 359kts
07-Jul-18 18:12 35.628673 -115.661087 342 13585ft 338kts
07-Jul-18 18:13 35.710727 -115.639953 49 13004ft 308kts
07-Jul-18 18:14 35.776648 -115.576451 9 13013ft 314kts
07-Jul-18 18:15 35.863864 -115.569481 2 13013ft 314kts
07-Jul-18 18:16 35.951072 -115.563011 15 13003ft 314kts
07-Jul-18 18:17 35.999214 -115.481076 74 12118ft 306kts
07-Jul-18 18:18 36.026738 -115.386656 77 11118ft 282kts
07-Jul-18 18:19 36.025340 -115.291194 96 10019ft 279kts
07-Jul-18 18:20 36.018155 -115.196471 95 8928ft 274kts
07-Jul-18 18:21 36.011996 -115.105905 96 8200ft 250kts
07-Jul-18 18:22 36.007145 -115.026148 95 7410ft 221kts
07-Jul-18 18:23 36.002897 -114.955213 96 6524ft 195kts
07-Jul-18 18:24 36.018082 -114.899583 6 5044ft 196kts
07-Jul-18 18:25 36.067346 -114.915948 298 4221ft 184kts
07-Jul-18 18:26 36.073711 -114.978326 270 4301ft 186kts
07-Jul-18 18:27 36.073726 -115.043015 268 3489ft 180kts
07-Jul-18 18:28 36.073676 -115.101933 268 2585ft 163kts
07-Jul-18 18:29 36.073650 -115.147089 270 2189ft 51kts
07-Jul-18 18:31 36.074569 -115.150186 299 2189ft 0kts
07-Jul-18 18:32 36.076928 -115.152269 332 2189ft 15kts
07-Jul-18 18:33 36.078704 -115.150881 93 2189ft 22kts
07-Jul-18 18:34 36.078317 -115.144345 94 2189ft 17kts
07-Jul-18 18:35 36.078277 -115.139885 65 2189ft 8kts
07-Jul-18 18:36 36.079937 -115.138703 320 2189ft 6kts
07-Jul-18 18:37 36.080280 -115.139087 316 2189ft 0kts
07-Jul-18 18:38 36.080280 -115.139087 316 2189ft 0kts
07-Jul-18 18:39 36.080280 -115.139087 316 2189ft 0kts

Navigation Log

Ident Type
Flight plan parsing failed, navigation log unavailable